sensor_id;sensor_type;location;lat;lon;timestamp;P1;durP1;ratioP1;P2;durP2;ratioP2
31224;SDS011;17847;31.524;74.366;2023-02-28T00:00:05;56.47;;;33.97;;
31224;SDS011;17847;31.524;74.366;2023-02-28T00:02:48;65.13;;;35.38;;
31224;SDS011;17847;31.524;74.366;2023-02-28T00:05:38;64.13;;;37.35;;
31224;SDS011;17847;31.524;74.366;2023-02-28T00:08:19;60.72;;;37.65;;
31224;SDS011;17847;31.524;74.366;2023-02-28T00:11:09;59.45;;;36.72;;
31224;SDS011;17847;31.524;74.366;2023-02-28T00:13:52;73.05;;;39.70;;
31224;SDS011;17847;31.524;74.366;2023-02-28T00:16:41;81.57;;;44.28;;
31224;SDS011;17847;31.524;74.366;2023-02-28T00:19:22;60.90;;;35.38;;
31224;SDS011;17847;31.524;74.366;2023-02-28T00:22:12;65.60;;;34.13;;
31224;SDS011;17847;31.524;74.366;2023-02-28T00:24:54;55.65;;;31.83;;
31224;SDS011;17847;31.524;74.366;2023-02-28T00:27:44;50.03;;;28.70;;
31224;SDS011;17847;31.524;74.366;2023-02-28T00:30:32;41.05;;;24.83;;
31224;SDS011;17847;31.524;74.366;2023-02-28T00:33:20;39.15;;;23.35;;
31224;SDS011;17847;31.524;74.366;2023-02-28T00:36:07;34.40;;;20.48;;
31224;SDS011;17847;31.524;74.366;2023-02-28T00:38:57;33.90;;;20.48;;
31224;SDS011;17847;31.524;74.366;2023-02-28T00:41:39;35.00;;;18.33;;
31224;SDS011;17847;31.524;74.366;2023-02-28T00:44:28;33.78;;;17.20;;
31224;SDS011;17847;31.524;74.366;2023-02-28T00:47:10;33.45;;;17.27;;
31224;SDS011;17847;31.524;74.366;2023-02-28T00:50:02;36.08;;;16.75;;
31224;SDS011;17847;31.524;74.366;2023-02-28T00:52:52;31.50;;;17.23;;
31224;SDS011;17847;31.524;74.366;2023-02-28T00:55:47;30.17;;;17.35;;
31224;SDS011;17847;31.524;74.366;2023-02-28T00:58:25;27.00;;;17.17;;
31224;SDS011;17847;31.524;74.366;2023-02-28T01:01:20;31.42;;;18.35;;
31224;SDS011;17847;31.524;74.366;2023-02-28T01:04:02;33.03;;;20.55;;
31224;SDS011;17847;31.524;74.366;2023-02-28T01:06:58;37.50;;;21.60;;
31224;SDS011;17847;31.524;74.366;2023-02-28T01:09:33;36.28;;;22.33;;
31224;SDS011;17847;31.524;74.366;2023-02-28T01:12:31;35.65;;;20.20;;
31224;SDS011;17847;31.524;74.366;2023-02-28T01:15:15;37.75;;;20.67;;
31224;SDS011;17847;31.524;74.366;2023-02-28T01:18:04;56.40;;;21.17;;
31224;SDS011;17847;31.524;74.366;2023-02-28T01:20:39;32.42;;;19.88;;
31224;SDS011;17847;31.524;74.366;2023-02-28T01:23:35;35.20;;;18.13;;
31224;SDS011;17847;31.524;74.366;2023-02-28T01:26:19;30.35;;;16.80;;
31224;SDS011;17847;31.524;74.366;2023-02-28T01:29:13;28.52;;;15.50;;
31224;SDS011;17847;31.524;74.366;2023-02-28T01:31:52;31.33;;;15.70;;
31224;SDS011;17847;31.524;74.366;2023-02-28T01:34:47;23.10;;;13.60;;
31224;SDS011;17847;31.524;74.366;2023-02-28T01:37:22;21.42;;;14.00;;
31224;SDS011;17847;31.524;74.366;2023-02-28T01:40:18;18.83;;;12.48;;
31224;SDS011;17847;31.524;74.366;2023-02-28T01:43:00;19.33;;;13.25;;
31224;SDS011;17847;31.524;74.366;2023-02-28T01:45:56;23.00;;;12.02;;
31224;SDS011;17847;31.524;74.366;2023-02-28T01:48:34;21.02;;;12.15;;
31224;SDS011;17847;31.524;74.366;2023-02-28T01:51:49;17.95;;;11.32;;
31224;SDS011;17847;31.524;74.366;2023-02-28T01:54:50;18.50;;;10.45;;
31224;SDS011;17847;31.524;74.366;2023-02-28T01:57:37;14.43;;;10.07;;
31224;SDS011;17847;31.524;74.366;2023-02-28T02:00:31;16.05;;;10.05;;
31224;SDS011;17847;31.524;74.366;2023-02-28T02:03:15;16.33;;;10.77;;
31224;SDS011;17847;31.524;74.366;2023-02-28T02:06:13;18.88;;;11.55;;
31224;SDS011;17847;31.524;74.366;2023-02-28T02:08:49;16.90;;;11.00;;
31224;SDS011;17847;31.524;74.366;2023-02-28T02:11:44;16.23;;;10.63;;
31224;SDS011;17847;31.524;74.366;2023-02-28T02:14:33;15.18;;;10.07;;
31224;SDS011;17847;31.524;74.366;2023-02-28T02:17:34;19.02;;;11.60;;
31224;SDS011;17847;31.524;74.366;2023-02-28T02:29:59;16.98;;;9.95;;
31224;SDS011;17847;31.524;74.366;2023-02-28T02:33:09;16.15;;;10.40;;
31224;SDS011;17847;31.524;74.366;2023-02-28T02:36:13;14.23;;;10.27;;
31224;SDS011;17847;31.524;74.366;2023-02-28T02:39:10;17.55;;;10.63;;
31224;SDS011;17847;31.524;74.366;2023-02-28T02:42:08;17.08;;;10.93;;
31224;SDS011;17847;31.524;74.366;2023-02-28T02:45:03;16.15;;;11.43;;
31224;SDS011;17847;31.524;74.366;2023-02-28T02:48:00;17.75;;;11.25;;
31224;SDS011;17847;31.524;74.366;2023-02-28T02:51:06;15.43;;;10.77;;
31224;SDS011;17847;31.524;74.366;2023-02-28T02:56:57;19.00;;;11.38;;
31224;SDS011;17847;31.524;74.366;2023-02-28T02:59:50;20.60;;;11.02;;
31224;SDS011;17847;31.524;74.366;2023-02-28T03:02:36;18.63;;;12.32;;
31224;SDS011;17847;31.524;74.366;2023-02-28T03:05:32;20.40;;;12.00;;
31224;SDS011;17847;31.524;74.366;2023-02-28T03:08:21;20.10;;;12.40;;
31224;SDS011;17847;31.524;74.366;2023-02-28T03:11:13;21.98;;;13.88;;
31224;SDS011;17847;31.524;74.366;2023-02-28T03:23:29;25.48;;;16.38;;
31224;SDS011;17847;31.524;74.366;2023-02-28T03:26:36;23.92;;;15.20;;
31224;SDS011;17847;31.524;74.366;2023-02-28T03:29:37;28.00;;;16.95;;
31224;SDS011;17847;31.524;74.366;2023-02-28T03:32:23;32.22;;;19.77;;
31224;SDS011;17847;31.524;74.366;2023-02-28T03:35:25;37.22;;;21.98;;
31224;SDS011;17847;31.524;74.366;2023-02-28T03:41:35;37.15;;;23.20;;
31224;SDS011;17847;31.524;74.366;2023-02-28T03:45:00;39.97;;;23.87;;
31224;SDS011;17847;31.524;74.366;2023-02-28T03:51:09;43.67;;;26.38;;
31224;SDS011;17847;31.524;74.366;2023-02-28T03:54:15;40.30;;;24.38;;
31224;SDS011;17847;31.524;74.366;2023-02-28T03:57:54;37.50;;;23.77;;
31224;SDS011;17847;31.524;74.366;2023-02-28T04:00:40;46.72;;;22.55;;
31224;SDS011;17847;31.524;74.366;2023-02-28T04:03:29;31.10;;;19.85;;
31224;SDS011;17847;31.524;74.366;2023-02-28T04:06:18;29.15;;;16.05;;
31224;SDS011;17847;31.524;74.366;2023-02-28T04:09:03;21.40;;;13.45;;
31224;SDS011;17847;31.524;74.366;2023-02-28T04:11:52;25.75;;;13.95;;
31224;SDS011;17847;31.524;74.366;2023-02-28T04:14:34;21.55;;;12.73;;
31224;SDS011;17847;31.524;74.366;2023-02-28T04:17:23;24.33;;;12.75;;
31224;SDS011;17847;31.524;74.366;2023-02-28T04:20:06;18.77;;;10.52;;
31224;SDS011;17847;31.524;74.366;2023-02-28T04:23:02;18.98;;;10.55;;
31224;SDS011;17847;31.524;74.366;2023-02-28T04:25:44;19.90;;;10.57;;
31224;SDS011;17847;31.524;74.366;2023-02-28T04:28:40;17.55;;;8.35;;
31224;SDS011;17847;31.524;74.366;2023-02-28T04:31:15;12.88;;;7.93;;
31224;SDS011;17847;31.524;74.366;2023-02-28T04:34:11;15.70;;;7.78;;
31224;SDS011;17847;31.524;74.366;2023-02-28T04:36:54;10.98;;;7.88;;
31224;SDS011;17847;31.524;74.366;2023-02-28T04:39:53;18.95;;;9.43;;
31224;SDS011;17847;31.524;74.366;2023-02-28T04:42:35;15.13;;;7.88;;
31224;SDS011;17847;31.524;74.366;2023-02-28T04:45:24;13.05;;;7.20;;
31224;SDS011;17847;31.524;74.366;2023-02-28T04:48:00;16.10;;;8.25;;
31224;SDS011;17847;31.524;74.366;2023-02-28T04:50:55;15.57;;;7.90;;
31224;SDS011;17847;31.524;74.366;2023-02-28T04:53:37;15.43;;;7.50;;
31224;SDS011;17847;31.524;74.366;2023-02-28T04:56:33;18.13;;;8.20;;
31224;SDS011;17847;31.524;74.366;2023-02-28T04:59:15;13.93;;;7.85;;
31224;SDS011;17847;31.524;74.366;2023-02-28T05:02:05;15.02;;;7.43;;
31224;SDS011;17847;31.524;74.366;2023-02-28T05:04:41;14.50;;;6.45;;
31224;SDS011;17847;31.524;74.366;2023-02-28T05:07:37;16.15;;;6.38;;
31224;SDS011;17847;31.524;74.366;2023-02-28T05:10:19;11.65;;;6.72;;
31224;SDS011;17847;31.524;74.366;2023-02-28T05:13:09;11.50;;;6.25;;
31224;SDS011;17847;31.524;74.366;2023-02-28T05:15:47;13.05;;;6.95;;
31224;SDS011;17847;31.524;74.366;2023-02-28T05:18:43;10.60;;;6.93;;
31224;SDS011;17847;31.524;74.366;2023-02-28T05:21:29;12.93;;;6.13;;
31224;SDS011;17847;31.524;74.366;2023-02-28T05:24:42;11.98;;;6.40;;
31224;SDS011;17847;31.524;74.366;2023-02-28T05:27:25;11.27;;;5.72;;
31224;SDS011;17847;31.524;74.366;2023-02-28T05:30:13;12.15;;;6.15;;
31224;SDS011;17847;31.524;74.366;2023-02-28T05:32:56;9.18;;;5.43;;
31224;SDS011;17847;31.524;74.366;2023-02-28T05:35:46;12.80;;;5.82;;
31224;SDS011;17847;31.524;74.366;2023-02-28T05:38:28;13.82;;;6.28;;
31224;SDS011;17847;31.524;74.366;2023-02-28T05:41:18;9.20;;;6.35;;
31224;SDS011;17847;31.524;74.366;2023-02-28T05:44:01;12.88;;;6.07;;
31224;SDS011;17847;31.524;74.366;2023-02-28T05:46:57;17.05;;;6.78;;
31224;SDS011;17847;31.524;74.366;2023-02-28T05:49:38;13.75;;;7.97;;
31224;SDS011;17847;31.524;74.366;2023-02-28T05:52:27;17.25;;;6.65;;
31224;SDS011;17847;31.524;74.366;2023-02-28T05:55:23;14.20;;;7.15;;
31224;SDS011;17847;31.524;74.366;2023-02-28T05:58:04;15.85;;;7.78;;
31224;SDS011;17847;31.524;74.366;2023-02-28T06:00:54;13.13;;;6.75;;
31224;SDS011;17847;31.524;74.366;2023-02-28T06:03:36;11.93;;;5.95;;
31224;SDS011;17847;31.524;74.366;2023-02-28T06:06:25;12.68;;;5.90;;
31224;SDS011;17847;31.524;74.366;2023-02-28T06:09:00;13.50;;;6.30;;
31224;SDS011;17847;31.524;74.366;2023-02-28T06:11:57;14.68;;;7.40;;
31224;SDS011;17847;31.524;74.366;2023-02-28T06:14:41;15.75;;;6.32;;
31224;SDS011;17847;31.524;74.366;2023-02-28T06:17:31;10.18;;;5.72;;
31224;SDS011;17847;31.524;74.366;2023-02-28T06:20:13;10.65;;;5.20;;
31224;SDS011;17847;31.524;74.366;2023-02-28T06:23:02;14.85;;;6.47;;
31224;SDS011;17847;31.524;74.366;2023-02-28T06:25:45;11.20;;;6.07;;
31224;SDS011;17847;31.524;74.366;2023-02-28T06:28:34;11.43;;;6.72;;
31224;SDS011;17847;31.524;74.366;2023-02-28T06:31:17;15.23;;;7.13;;
31224;SDS011;17847;31.524;74.366;2023-02-28T06:34:07;14.45;;;7.22;;
31224;SDS011;17847;31.524;74.366;2023-02-28T06:36:50;17.88;;;9.35;;
31224;SDS011;17847;31.524;74.366;2023-02-28T06:39:43;13.18;;;8.85;;
31224;SDS011;17847;31.524;74.366;2023-02-28T06:42:26;16.08;;;8.10;;
31224;SDS011;17847;31.524;74.366;2023-02-28T06:45:15;14.77;;;6.40;;
31224;SDS011;17847;31.524;74.366;2023-02-28T06:47:57;11.30;;;5.93;;
31224;SDS011;17847;31.524;74.366;2023-02-28T06:50:46;12.55;;;6.60;;
31224;SDS011;17847;31.524;74.366;2023-02-28T06:53:35;11.43;;;5.47;;
31224;SDS011;17847;31.524;74.366;2023-02-28T06:56:18;9.13;;;5.38;;
31224;SDS011;17847;31.524;74.366;2023-02-28T06:59:08;15.07;;;5.32;;
31224;SDS011;17847;31.524;74.366;2023-02-28T07:01:49;12.88;;;5.22;;
31224;SDS011;17847;31.524;74.366;2023-02-28T07:04:39;5.45;;;4.20;;
31224;SDS011;17847;31.524;74.366;2023-02-28T07:07:21;10.45;;;4.68;;
31224;SDS011;17847;31.524;74.366;2023-02-28T07:10:10;7.43;;;4.93;;
31224;SDS011;17847;31.524;74.366;2023-02-28T07:12:52;9.02;;;4.95;;
31224;SDS011;17847;31.524;74.366;2023-02-28T07:15:41;10.27;;;5.20;;
31224;SDS011;17847;31.524;74.366;2023-02-28T07:18:22;7.80;;;4.60;;
31224;SDS011;17847;31.524;74.366;2023-02-28T07:21:12;8.60;;;4.15;;
31224;SDS011;17847;31.524;74.366;2023-02-28T07:23:55;12.32;;;5.70;;
31224;SDS011;17847;31.524;74.366;2023-02-28T07:26:45;8.88;;;5.72;;
31224;SDS011;17847;31.524;74.366;2023-02-28T07:29:26;13.68;;;6.72;;
31224;SDS011;17847;31.524;74.366;2023-02-28T07:32:16;13.32;;;7.13;;
31224;SDS011;17847;31.524;74.366;2023-02-28T07:34:58;11.85;;;6.90;;
31224;SDS011;17847;31.524;74.366;2023-02-28T07:37:48;11.15;;;5.63;;
31224;SDS011;17847;31.524;74.366;2023-02-28T07:40:30;12.60;;;5.10;;
31224;SDS011;17847;31.524;74.366;2023-02-28T07:43:20;10.48;;;5.05;;
31224;SDS011;17847;31.524;74.366;2023-02-28T07:46:05;10.63;;;4.70;;
31224;SDS011;17847;31.524;74.366;2023-02-28T07:48:56;6.18;;;4.13;;
31224;SDS011;17847;31.524;74.366;2023-02-28T07:51:37;12.60;;;5.13;;
31224;SDS011;17847;31.524;74.366;2023-02-28T07:54:27;10.05;;;4.85;;
31224;SDS011;17847;31.524;74.366;2023-02-28T07:57:09;14.18;;;5.85;;
31224;SDS011;17847;31.524;74.366;2023-02-28T07:59:58;10.55;;;4.55;;
31224;SDS011;17847;31.524;74.366;2023-02-28T08:02:41;8.52;;;4.72;;
31224;SDS011;17847;31.524;74.366;2023-02-28T08:05:30;8.82;;;4.57;;
31224;SDS011;17847;31.524;74.366;2023-02-28T08:08:14;9.75;;;4.70;;
31224;SDS011;17847;31.524;74.366;2023-02-28T08:11:03;6.75;;;4.05;;
31224;SDS011;17847;31.524;74.366;2023-02-28T08:13:46;11.23;;;5.00;;
31224;SDS011;17847;31.524;74.366;2023-02-28T08:16:35;11.67;;;4.57;;
31224;SDS011;17847;31.524;74.366;2023-02-28T08:19:17;9.00;;;4.25;;
31224;SDS011;17847;31.524;74.366;2023-02-28T08:22:06;9.38;;;5.03;;
31224;SDS011;17847;31.524;74.366;2023-02-28T08:24:48;16.23;;;6.30;;
31224;SDS011;17847;31.524;74.366;2023-02-28T08:27:37;12.60;;;5.07;;
31224;SDS011;17847;31.524;74.366;2023-02-28T08:30:19;9.93;;;4.70;;
31224;SDS011;17847;31.524;74.366;2023-02-28T08:33:08;11.73;;;4.55;;
31224;SDS011;17847;31.524;74.366;2023-02-28T08:35:54;9.07;;;4.32;;
31224;SDS011;17847;31.524;74.366;2023-02-28T08:38:44;14.10;;;5.13;;
31224;SDS011;17847;31.524;74.366;2023-02-28T08:41:27;9.13;;;5.03;;
31224;SDS011;17847;31.524;74.366;2023-02-28T08:44:16;13.05;;;4.55;;
31224;SDS011;17847;31.524;74.366;2023-02-28T08:46:58;15.70;;;5.97;;
31224;SDS011;17847;31.524;74.366;2023-02-28T08:49:48;12.98;;;5.15;;
31224;SDS011;17847;31.524;74.366;2023-02-28T08:52:37;35.22;;;6.63;;
31224;SDS011;17847;31.524;74.366;2023-02-28T08:55:19;11.75;;;3.58;;
31224;SDS011;17847;31.524;74.366;2023-02-28T08:58:09;6.18;;;3.50;;
31224;SDS011;17847;31.524;74.366;2023-02-28T09:00:44;9.88;;;3.53;;
31224;SDS011;17847;31.524;74.366;2023-02-28T09:03:40;9.77;;;3.97;;
31224;SDS011;17847;31.524;74.366;2023-02-28T09:06:24;9.63;;;4.03;;
31224;SDS011;17847;31.524;74.366;2023-02-28T09:09:15;6.15;;;3.70;;
31224;SDS011;17847;31.524;74.366;2023-02-28T09:11:51;12.68;;;4.15;;
31224;SDS011;17847;31.524;74.366;2023-02-28T09:14:47;8.25;;;3.65;;
31224;SDS011;17847;31.524;74.366;2023-02-28T09:17:28;7.13;;;4.10;;
31224;SDS011;17847;31.524;74.366;2023-02-28T09:20:18;15.43;;;4.22;;
31224;SDS011;17847;31.524;74.366;2023-02-28T09:23:01;13.30;;;4.72;;
31224;SDS011;17847;31.524;74.366;2023-02-28T09:25:50;8.17;;;3.77;;
31224;SDS011;17847;31.524;74.366;2023-02-28T09:28:34;12.18;;;4.03;;
31224;SDS011;17847;31.524;74.366;2023-02-28T09:31:30;9.85;;;3.92;;
31224;SDS011;17847;31.524;74.366;2023-02-28T09:34:11;7.65;;;3.28;;
31224;SDS011;17847;31.524;74.366;2023-02-28T09:37:01;6.53;;;3.90;;
31224;SDS011;17847;31.524;74.366;2023-02-28T09:39:42;9.70;;;3.72;;
31224;SDS011;17847;31.524;74.366;2023-02-28T09:42:32;12.35;;;4.50;;
31224;SDS011;17847;31.524;74.366;2023-02-28T09:45:26;13.77;;;3.90;;
31224;SDS011;17847;31.524;74.366;2023-02-28T09:48:20;7.20;;;4.18;;
31224;SDS011;17847;31.524;74.366;2023-02-28T09:51:13;9.43;;;4.45;;
31224;SDS011;17847;31.524;74.366;2023-02-28T09:54:05;11.52;;;4.20;;
31224;SDS011;17847;31.524;74.366;2023-02-28T09:57:08;13.65;;;4.03;;
31224;SDS011;17847;31.524;74.366;2023-02-28T10:00:18;7.05;;;4.13;;
31224;SDS011;17847;31.524;74.366;2023-02-28T10:06:18;9.60;;;4.40;;
31224;SDS011;17847;31.524;74.366;2023-02-28T10:12:11;10.13;;;4.18;;
31224;SDS011;17847;31.524;74.366;2023-02-28T10:15:03;10.80;;;4.47;;
31224;SDS011;17847;31.524;74.366;2023-02-28T10:17:47;11.05;;;5.38;;
31224;SDS011;17847;31.524;74.366;2023-02-28T10:20:48;8.13;;;4.25;;
31224;SDS011;17847;31.524;74.366;2023-02-28T10:23:35;9.57;;;4.57;;
31224;SDS011;17847;31.524;74.366;2023-02-28T10:26:28;12.18;;;5.00;;
31224;SDS011;17847;31.524;74.366;2023-02-28T10:29:13;7.78;;;4.00;;
31224;SDS011;17847;31.524;74.366;2023-02-28T10:32:03;9.45;;;4.75;;
31224;SDS011;17847;31.524;74.366;2023-02-28T10:34:55;9.98;;;5.57;;
31224;SDS011;17847;31.524;74.366;2023-02-28T10:37:47;16.00;;;5.03;;
31224;SDS011;17847;31.524;74.366;2023-02-28T10:40:33;12.82;;;4.45;;
31224;SDS011;17847;31.524;74.366;2023-02-28T10:43:23;14.07;;;4.50;;
31224;SDS011;17847;31.524;74.366;2023-02-28T10:49:12;14.75;;;6.72;;
31224;SDS011;17847;31.524;74.366;2023-02-28T10:52:09;18.17;;;5.63;;
31224;SDS011;17847;31.524;74.366;2023-02-28T10:55:13;9.23;;;4.85;;
31224;SDS011;17847;31.524;74.366;2023-02-28T10:58:28;13.27;;;5.32;;
31224;SDS011;17847;31.524;74.366;2023-02-28T11:07:21;19.00;;;5.97;;
31224;SDS011;17847;31.524;74.366;2023-02-28T11:10:25;7.85;;;5.00;;
31224;SDS011;17847;31.524;74.366;2023-02-28T11:13:17;13.60;;;5.07;;
31224;SDS011;17847;31.524;74.366;2023-02-28T11:16:05;12.10;;;5.38;;
31224;SDS011;17847;31.524;74.366;2023-02-28T11:18:57;12.88;;;5.55;;
31224;SDS011;17847;31.524;74.366;2023-02-28T11:21:45;7.75;;;5.43;;
31224;SDS011;17847;31.524;74.366;2023-02-28T11:24:47;9.27;;;5.25;;
31224;SDS011;17847;31.524;74.366;2023-02-28T11:33:29;12.30;;;5.13;;
31224;SDS011;17847;31.524;74.366;2023-02-28T11:39:15;12.13;;;5.30;;
31224;SDS011;17847;31.524;74.366;2023-02-28T11:42:27;9.77;;;4.97;;
31224;SDS011;17847;31.524;74.366;2023-02-28T11:45:30;15.85;;;5.45;;
31224;SDS011;17847;31.524;74.366;2023-02-28T11:48:41;9.95;;;5.18;;
31224;SDS011;17847;31.524;74.366;2023-02-28T11:51:52;14.27;;;5.90;;
31224;SDS011;17847;31.524;74.366;2023-02-28T11:54:59;12.50;;;6.80;;
31224;SDS011;17847;31.524;74.366;2023-02-28T11:57:52;13.57;;;5.95;;
31224;SDS011;17847;31.524;74.366;2023-02-28T12:13:02;12.50;;;7.13;;
31224;SDS011;17847;31.524;74.366;2023-02-28T12:28:33;14.80;;;8.02;;
31224;SDS011;17847;31.524;74.366;2023-02-28T12:31:36;20.00;;;8.13;;
31224;SDS011;17847;31.524;74.366;2023-02-28T12:34:28;22.38;;;8.38;;
31224;SDS011;17847;31.524;74.366;2023-02-28T12:37:31;15.93;;;9.25;;
31224;SDS011;17847;31.524;74.366;2023-02-28T12:40:55;20.83;;;9.32;;
31224;SDS011;17847;31.524;74.366;2023-02-28T12:44:00;19.35;;;8.55;;
31224;SDS011;17847;31.524;74.366;2023-02-28T12:46:51;19.33;;;9.80;;
31224;SDS011;17847;31.524;74.366;2023-02-28T12:56:03;26.48;;;9.95;;
31224;SDS011;17847;31.524;74.366;2023-02-28T12:59:18;24.20;;;10.60;;
31224;SDS011;17847;31.524;74.366;2023-02-28T13:11:53;27.77;;;10.18;;
31224;SDS011;17847;31.524;74.366;2023-02-28T13:14:43;19.65;;;8.82;;
31224;SDS011;17847;31.524;74.366;2023-02-28T13:17:26;22.77;;;8.93;;
31224;SDS011;17847;31.524;74.366;2023-02-28T13:20:21;21.03;;;9.50;;
31224;SDS011;17847;31.524;74.366;2023-02-28T13:23:16;21.33;;;10.02;;
31224;SDS011;17847;31.524;74.366;2023-02-28T13:29:27;19.58;;;9.43;;
31224;SDS011;17847;31.524;74.366;2023-02-28T13:32:19;22.25;;;10.50;;
31224;SDS011;17847;31.524;74.366;2023-02-28T13:38:21;28.70;;;10.75;;
31224;SDS011;17847;31.524;74.366;2023-02-28T13:44:45;31.52;;;11.20;;
31224;SDS011;17847;31.524;74.366;2023-02-28T13:47:52;40.25;;;12.95;;
31224;SDS011;17847;31.524;74.366;2023-02-28T13:50:41;30.80;;;12.43;;
31224;SDS011;17847;31.524;74.366;2023-02-28T13:53:38;32.22;;;12.63;;
31224;SDS011;17847;31.524;74.366;2023-02-28T13:56:45;31.77;;;12.40;;
31224;SDS011;17847;31.524;74.366;2023-02-28T14:06:32;34.72;;;11.77;;
31224;SDS011;17847;31.524;74.366;2023-02-28T14:19:02;33.65;;;13.00;;
31224;SDS011;17847;31.524;74.366;2023-02-28T14:31:28;34.50;;;13.50;;
31224;SDS011;17847;31.524;74.366;2023-02-28T14:34:05;31.40;;;13.13;;
31224;SDS011;17847;31.524;74.366;2023-02-28T14:37:23;34.75;;;13.38;;
31224;SDS011;17847;31.524;74.366;2023-02-28T14:40:17;37.13;;;13.30;;
31224;SDS011;17847;31.524;74.366;2023-02-28T14:43:05;37.25;;;13.75;;
31224;SDS011;17847;31.524;74.366;2023-02-28T14:46:07;39.90;;;14.20;;
31224;SDS011;17847;31.524;74.366;2023-02-28T14:48:49;45.70;;;13.88;;
31224;SDS011;17847;31.524;74.366;2023-02-28T14:51:39;46.00;;;13.18;;
31224;SDS011;17847;31.524;74.366;2023-02-28T14:54:28;38.92;;;12.85;;
31224;SDS011;17847;31.524;74.366;2023-02-28T15:00:46;35.50;;;12.63;;
31224;SDS011;17847;31.524;74.366;2023-02-28T15:03:36;37.47;;;13.93;;
31224;SDS011;17847;31.524;74.366;2023-02-28T15:06:27;38.33;;;16.60;;
31224;SDS011;17847;31.524;74.366;2023-02-28T15:12:07;39.60;;;17.05;;
31224;SDS011;17847;31.524;74.366;2023-02-28T15:14:52;38.30;;;17.45;;
31224;SDS011;17847;31.524;74.366;2023-02-28T15:17:43;38.63;;;18.60;;
31224;SDS011;17847;31.524;74.366;2023-02-28T15:20:28;64.25;;;19.58;;
31224;SDS011;17847;31.524;74.366;2023-02-28T15:23:18;46.45;;;20.65;;
31224;SDS011;17847;31.524;74.366;2023-02-28T15:25:56;39.75;;;21.42;;
31224;SDS011;17847;31.524;74.366;2023-02-28T15:28:55;55.03;;;26.77;;
31224;SDS011;17847;31.524;74.366;2023-02-28T15:31:41;52.95;;;26.88;;
31224;SDS011;17847;31.524;74.366;2023-02-28T15:34:44;65.90;;;28.10;;
31224;SDS011;17847;31.524;74.366;2023-02-28T15:43:18;54.45;;;26.88;;
31224;SDS011;17847;31.524;74.366;2023-02-28T15:46:17;46.97;;;20.58;;
31224;SDS011;17847;31.524;74.366;2023-02-28T15:49:02;41.75;;;18.60;;
31224;SDS011;17847;31.524;74.366;2023-02-28T15:51:50;33.70;;;16.13;;
31224;SDS011;17847;31.524;74.366;2023-02-28T15:54:35;31.88;;;15.00;;
31224;SDS011;17847;31.524;74.366;2023-02-28T15:57:25;32.13;;;13.68;;
31224;SDS011;17847;31.524;74.366;2023-02-28T16:00:12;23.38;;;12.52;;
31224;SDS011;17847;31.524;74.366;2023-02-28T16:03:22;22.85;;;10.95;;
31224;SDS011;17847;31.524;74.366;2023-02-28T16:06:09;24.50;;;10.38;;
31224;SDS011;17847;31.524;74.366;2023-02-28T16:09:05;23.30;;;10.38;;
31224;SDS011;17847;31.524;74.366;2023-02-28T16:11:50;24.08;;;10.70;;
31224;SDS011;17847;31.524;74.366;2023-02-28T16:14:42;21.98;;;11.98;;
31224;SDS011;17847;31.524;74.366;2023-02-28T16:17:27;22.33;;;12.82;;
31224;SDS011;17847;31.524;74.366;2023-02-28T16:20:24;22.98;;;12.35;;
31224;SDS011;17847;31.524;74.366;2023-02-28T16:23:08;24.73;;;11.65;;
31224;SDS011;17847;31.524;74.366;2023-02-28T16:25:57;21.25;;;11.73;;
31224;SDS011;17847;31.524;74.366;2023-02-28T16:28:39;26.90;;;11.57;;
31224;SDS011;17847;31.524;74.366;2023-02-28T16:31:28;28.42;;;12.55;;
31224;SDS011;17847;31.524;74.366;2023-02-28T16:34:11;27.38;;;12.77;;
31224;SDS011;17847;31.524;74.366;2023-02-28T16:37:00;24.00;;;14.13;;
31224;SDS011;17847;31.524;74.366;2023-02-28T16:39:43;28.52;;;17.15;;
31224;SDS011;17847;31.524;74.366;2023-02-28T16:42:33;40.22;;;19.25;;
31224;SDS011;17847;31.524;74.366;2023-02-28T16:45:19;33.17;;;19.02;;
31224;SDS011;17847;31.524;74.366;2023-02-28T16:48:14;31.08;;;19.05;;
31224;SDS011;17847;31.524;74.366;2023-02-28T16:50:58;38.05;;;19.13;;
31224;SDS011;17847;31.524;74.366;2023-02-28T16:53:46;34.90;;;17.70;;
31224;SDS011;17847;31.524;74.366;2023-02-28T16:56:43;32.75;;;15.57;;
31224;SDS011;17847;31.524;74.366;2023-02-28T16:59:26;26.27;;;16.48;;
31224;SDS011;17847;31.524;74.366;2023-02-28T17:02:17;26.02;;;16.30;;
31224;SDS011;17847;31.524;74.366;2023-02-28T17:05:01;27.83;;;15.70;;
31224;SDS011;17847;31.524;74.366;2023-02-28T17:07:51;29.08;;;17.17;;
31224;SDS011;17847;31.524;74.366;2023-02-28T17:10:32;31.50;;;18.25;;
31224;SDS011;17847;31.524;74.366;2023-02-28T17:13:22;35.15;;;19.67;;
31224;SDS011;17847;31.524;74.366;2023-02-28T17:16:04;28.38;;;17.45;;
31224;SDS011;17847;31.524;74.366;2023-02-28T17:18:54;30.40;;;18.13;;
31224;SDS011;17847;31.524;74.366;2023-02-28T17:21:39;31.80;;;18.55;;
31224;SDS011;17847;31.524;74.366;2023-02-28T17:24:29;31.05;;;19.60;;
31224;SDS011;17847;31.524;74.366;2023-02-28T17:27:12;30.27;;;20.98;;
31224;SDS011;17847;31.524;74.366;2023-02-28T17:30:01;45.77;;;22.50;;
31224;SDS011;17847;31.524;74.366;2023-02-28T17:32:45;35.53;;;22.88;;
31224;SDS011;17847;31.524;74.366;2023-02-28T17:35:35;35.70;;;24.27;;
31224;SDS011;17847;31.524;74.366;2023-02-28T17:38:18;35.25;;;25.90;;
31224;SDS011;17847;31.524;74.366;2023-02-28T17:41:09;39.75;;;27.17;;
31224;SDS011;17847;31.524;74.366;2023-02-28T17:43:52;41.72;;;27.45;;
31224;SDS011;17847;31.524;74.366;2023-02-28T17:46:41;41.28;;;27.70;;
31224;SDS011;17847;31.524;74.366;2023-02-28T17:49:24;44.63;;;28.55;;
31224;SDS011;17847;31.524;74.366;2023-02-28T17:52:14;44.72;;;25.13;;
31224;SDS011;17847;31.524;74.366;2023-02-28T17:55:04;42.25;;;24.13;;
31224;SDS011;17847;31.524;74.366;2023-02-28T17:57:46;47.85;;;24.98;;
31224;SDS011;17847;31.524;74.366;2023-02-28T18:00:36;48.63;;;27.75;;
31224;SDS011;17847;31.524;74.366;2023-02-28T18:03:17;49.90;;;31.00;;
31224;SDS011;17847;31.524;74.366;2023-02-28T18:06:27;52.72;;;33.15;;
31224;SDS011;17847;31.524;74.366;2023-02-28T18:09:22;46.70;;;31.55;;
31224;SDS011;17847;31.524;74.366;2023-02-28T18:12:11;46.13;;;28.02;;
31224;SDS011;17847;31.524;74.366;2023-02-28T18:14:54;38.58;;;26.15;;
31224;SDS011;17847;31.524;74.366;2023-02-28T18:17:42;38.38;;;26.05;;
31224;SDS011;17847;31.524;74.366;2023-02-28T18:20:27;40.95;;;25.42;;
31224;SDS011;17847;31.524;74.366;2023-02-28T18:23:15;36.25;;;22.38;;
31224;SDS011;17847;31.524;74.366;2023-02-28T18:26:00;37.13;;;20.58;;
31224;SDS011;17847;31.524;74.366;2023-02-28T18:28:49;28.77;;;19.03;;
31224;SDS011;17847;31.524;74.366;2023-02-28T18:31:31;30.65;;;17.90;;
31224;SDS011;17847;31.524;74.366;2023-02-28T18:34:20;25.38;;;16.85;;
31224;SDS011;17847;31.524;74.366;2023-02-28T18:37:03;27.25;;;16.10;;
31224;SDS011;17847;31.524;74.366;2023-02-28T18:39:54;25.58;;;16.70;;
31224;SDS011;17847;31.524;74.366;2023-02-28T18:42:36;24.30;;;16.67;;
31224;SDS011;17847;31.524;74.366;2023-02-28T18:45:25;31.90;;;17.65;;
31224;SDS011;17847;31.524;74.366;2023-02-28T18:48:08;27.00;;;18.90;;